Time;durP1;ratioP1;P1;durP2;ratioP2;P2;SDS_P1;SDS_P2;PMS_P1;PMS_P2;Temp;Humidity;BMP_temperature;BMP_pressure;BME280_temperature;BME280_humidity;BME280_pressure;Samples;Min_cycle;Max_cycle;Signal;HPM_P1;HPM_P2
2023/12/15 15:37:52;;;;;;;13.13;4.53;;;;;;;8.20;100.00;103542.44;5230940;27;20866;-71
2023/12/15 15:40:24;;;;;;;16.33;4.47;;;;;;;8.04;100.00;103553.84;5217965;28;20112;-70
2023/12/15 15:42:56;;;;;;;11.50;3.00;;;;;;;8.17;100.00;103552.06;5218700;28;20495;-71
2023/12/15 15:45:27;;;;;;;14.70;3.70;;;;;;;8.15;100.00;103553.81;5226029;28;20105;-71
2023/12/15 15:48:00;;;;;;;10.47;3.43;;;;;;;8.27;100.00;103563.31;5225307;28;20559;-69
2023/12/15 15:50:32;;;;;;;11.13;2.90;;;;;;;8.12;100.00;103567.72;5227527;28;20048;-70
2023/12/15 15:53:04;;;;;;;12.60;4.40;;;;;;;7.94;100.00;103566.09;5225799;28;20197;-69
2023/12/15 15:55:35;;;;;;;12.67;4.27;;;;;;;8.04;100.00;103564.28;5225328;28;20026;-73
2023/12/15 15:58:06;;;;;;;12.07;5.07;;;;;;;8.08;100.00;103573.84;5215971;28;20155;-73
2023/12/15 16:00:38;;;;;;;10.17;4.33;;;;;;;8.33;100.00;103589.38;5215191;28;20073;-69
2023/12/15 16:03:09;;;;;;;14.87;4.53;;;;;;;8.39;100.00;103591.06;5212422;28;20437;-70
2023/12/15 16:05:40;;;;;;;18.40;6.27;;;;;;;8.45;100.00;103601.47;5212779;28;20643;-70
2023/12/15 16:08:11;;;;;;;14.60;5.17;;;;;;;8.35;100.00;103598.06;5252836;28;20024;-70
2023/12/15 16:10:43;;;;;;;12.20;4.53;;;;;;;8.38;100.00;103603.25;5212112;28;20392;-72
2023/12/15 16:13:14;;;;;;;11.70;3.83;;;;;;;8.39;100.00;103601.53;5219069;28;20137;-72
2023/12/15 16:15:46;;;;;;;11.97;4.57;;;;;;;8.43;100.00;103611.94;5209181;28;20125;-70
2023/12/15 16:18:17;;;;;;;12.07;3.90;;;;;;;8.45;100.00;103588.41;5214087;28;20040;-70
2023/12/15 16:20:48;;;;;;;12.90;4.10;;;;;;;8.42;100.00;103588.44;5216855;28;20102;-71
2023/12/15 16:23:20;;;;;;;13.03;3.90;;;;;;;8.33;100.00;103579.78;5196715;28;20018;-70
2023/12/15 16:25:51;;;;;;;12.47;4.47;;;;;;;8.40;100.00;103585.84;5215523;28;20446;-69
2023/12/15 16:28:23;;;;;;;12.07;3.87;;;;;;;8.35;100.00;103582.41;5204524;28;20086;-69
2023/12/15 16:30:54;;;;;;;8.73;3.57;;;;;;;8.26;100.00;103588.53;5204443;28;20775;-69
2023/12/15 16:33:25;;;;;;;11.00;4.10;;;;;;;8.39;100.00;103578.91;5211410;28;20018;-69
2023/12/15 16:35:58;;;;;;;10.83;3.23;;;;;;;8.38;100.00;103566.69;5240240;28;20038;-70
2023/12/15 16:38:29;;;;;;;10.73;3.67;;;;;;;8.42;100.00;103562.31;5215666;28;20466;-69
2023/12/15 16:41:00;;;;;;;16.33;4.43;;;;;;;8.37;100.00;103554.53;5208996;28;20030;-69
2023/12/15 16:43:33;;;;;;;9.87;3.13;;;;;;;8.32;100.00;103557.19;5206390;28;20022;-69
2023/12/15 16:46:06;;;;;;;9.43;3.27;;;;;;;8.30;100.00;103590.25;5203682;28;20430;-68
2023/12/15 16:48:41;;;;;;;15.40;4.67;;;;;;;8.42;100.00;103596.28;5193652;28;20107;-68
2023/12/15 16:51:13;;;;;;;10.37;3.27;;;;;;;8.37;100.00;103587.59;5170887;28;20058;-68
2023/12/15 16:53:44;;;;;;;13.50;3.40;;;;;;;8.36;100.00;103584.13;5183393;28;20069;-69
2023/12/15 16:56:15;;;;;;;8.03;3.40;;;;;;;8.28;100.00;103594.63;5184278;28;20046;-69
2023/12/15 16:58:47;;;;;;;10.33;3.17;;;;;;;8.24;100.00;103605.94;5201183;28;20285;-71
2023/12/15 17:01:22;;;;;;;9.57;3.20;;;;;;;8.15;100.00;103606.00;5239023;28;20505;-70
2023/12/15 17:03:53;;;;;;;18.23;4.60;;;;;;;8.21;100.00;103617.28;5192380;28;20046;-70
2023/12/15 17:06:24;;;;;;;10.63;3.33;;;;;;;8.22;100.00;103610.34;5190767;28;20027;-71
2023/12/15 17:08:56;;;;;;;10.70;3.37;;;;;;;8.18;100.00;103612.09;5298933;28;20030;-72
2023/12/15 17:11:27;;;;;;;9.57;2.87;;;;;;;8.15;100.00;103621.69;5236823;28;20723;-74
2023/12/15 17:13:59;;;;;;;14.37;4.30;;;;;;;8.17;100.00;103623.38;5197066;28;20436;-72
2023/12/15 17:16:30;;;;;;;13.80;4.27;;;;;;;8.17;100.00;103631.22;5198655;28;20030;-72
2023/12/15 17:19:01;;;;;;;7.97;2.80;;;;;;;8.13;100.00;103639.09;5191744;28;20105;-71
2023/12/15 17:21:33;;;;;;;11.10;3.63;;;;;;;8.18;100.00;103643.41;5192265;28;20105;-74
2023/12/15 17:24:04;;;;;;;11.90;3.13;;;;;;;8.12;100.00;103646.03;5191094;28;20539;-68
2023/12/15 17:26:35;;;;;;;12.77;3.57;;;;;;;8.19;100.00;103644.25;5191149;28;20396;-72
2023/12/15 17:29:06;;;;;;;11.67;3.40;;;;;;;8.19;100.00;103655.59;5185667;28;20118;-68
2023/12/15 17:31:42;;;;;;;11.00;3.10;;;;;;;8.17;100.00;103649.50;5187583;28;20026;-70
2023/12/15 17:34:13;;;;;;;11.73;3.70;;;;;;;8.07;100.00;103639.97;5196356;28;20019;-71
2023/12/15 17:36:47;;;;;;;12.83;4.30;;;;;;;8.11;100.00;103628.66;5190103;28;20503;-71
2023/12/15 17:39:19;;;;;;;11.27;3.97;;;;;;;8.17;100.00;103630.38;5187520;28;20402;-70
2023/12/15 17:41:50;;;;;;;11.57;3.53;;;;;;;8.15;100.00;103621.69;5191264;28;20033;-70
2023/12/15 17:44:21;;;;;;;17.37;3.73;;;;;;;8.14;100.00;103622.53;5191153;28;20034;-72
2023/12/15 17:46:52;;;;;;;10.13;3.83;;;;;;;8.11;100.00;103626.03;5189437;28;20030;-70
2023/12/15 17:49:24;;;;;;;10.77;4.10;;;;;;;8.06;100.00;103635.63;5207721;28;20037;-71
2023/12/15 17:51:55;;;;;;;13.37;4.93;;;;;;;8.02;100.00;103637.38;5187651;28;20087;-71
2023/12/15 17:54:26;;;;;;;13.30;4.13;;;;;;;8.03;100.00;103633.03;5189274;28;20030;-71
2023/12/15 17:56:57;;;;;;;12.80;3.57;;;;;;;8.04;100.00;103635.66;5188086;28;20034;-71
2023/12/15 17:59:29;;;;;;;9.20;3.27;;;;;;;8.00;100.00;103641.75;5188696;28;20033;-71
2023/12/15 18:02:00;;;;;;;9.37;3.33;;;;;;;8.02;100.00;103644.34;5185094;28;20038;-71
2023/12/15 18:04:32;;;;;;;9.50;2.83;;;;;;;8.14;100.00;103646.91;5179945;28;20070;-73
2023/12/15 18:07:03;;;;;;;10.97;3.30;;;;;;;8.17;100.00;103638.22;5180652;28;20402;-74
2023/12/15 18:09:35;;;;;;;9.07;2.63;;;;;;;8.17;100.00;103644.28;5209121;28;20034;-70
2023/12/15 18:12:08;;;;;;;11.60;3.10;;;;;;;8.02;100.00;103632.16;5185794;28;20065;-70
2023/12/15 18:14:40;;;;;;;13.50;3.53;;;;;;;8.12;100.00;103659.09;5181640;28;20037;-69
2023/12/15 18:17:12;;;;;;;11.30;3.30;;;;;;;8.10;100.00;103651.28;5181077;28;20385;-70
2023/12/15 18:19:43;;;;;;;12.50;3.90;;;;;;;8.11;100.00;103637.38;5191276;28;20029;-72
2023/12/15 18:22:14;;;;;;;12.77;4.23;;;;;;;8.14;100.00;103641.69;5189024;28;20427;-71
2023/12/15 18:24:45;;;;;;;13.67;4.10;;;;;;;8.07;100.00;103634.75;5188861;28;20032;-72
2023/12/15 18:27:17;;;;;;;14.37;4.63;;;;;;;8.11;100.00;103644.31;5187937;28;20057;-69
2023/12/15 18:29:48;;;;;;;15.90;4.87;;;;;;;8.03;100.00;103652.16;5184406;28;20046;-68
2023/12/15 18:32:20;;;;;;;23.80;4.40;;;;;;;8.11;100.00;103658.25;5182968;28;20031;-69
2023/12/15 18:34:51;;;;;;;14.97;4.77;;;;;;;8.11;100.00;103660.84;5190704;28;20534;-68
2023/12/15 18:37:22;;;;;;;18.73;5.10;;;;;;;8.09;100.00;103669.56;5196858;28;20046;-69
2023/12/15 18:39:53;;;;;;;14.50;5.20;;;;;;;8.06;100.00;103680.88;5183100;28;20495;-69
2023/12/15 18:42:25;;;;;;;16.43;5.33;;;;;;;8.10;100.00;103686.94;5187341;28;20551;-69
2023/12/15 18:44:59;;;;;;;13.90;5.07;;;;;;;8.12;100.00;103687.81;5181281;28;20106;-69
2023/12/15 18:47:30;;;;;;;15.20;5.20;;;;;;;8.08;100.00;103683.50;5179672;28;20128;-69
2023/12/15 18:50:01;;;;;;;16.57;6.17;;;;;;;8.08;100.00;103684.34;5188661;28;20061;-69
2023/12/15 18:52:32;;;;;;;15.30;5.60;;;;;;;8.01;100.00;103682.66;5188163;28;20041;-73
2023/12/15 18:55:04;;;;;;;14.87;5.73;;;;;;;7.98;100.00;103678.28;5181662;28;20351;-70
2023/12/15 18:57:37;;;;;;;17.73;5.57;;;;;;;7.96;100.00;103666.97;5182266;28;20390;-71
2023/12/15 19:00:09;;;;;;;13.37;4.77;;;;;;;7.95;100.00;103673.09;5186962;28;20065;-71
2023/12/15 19:02:40;;;;;;;20.10;6.47;;;;;;;7.97;100.00;103660.91;5179522;28;20467;-70
2023/12/15 19:05:12;;;;;;;17.10;5.60;;;;;;;8.07;100.00;103686.94;5169329;28;20038;-70
2023/12/15 19:07:45;;;;;;;20.13;6.47;;;;;;;7.90;100.00;103690.50;5186735;28;20034;-70
2023/12/15 19:10:16;;;;;;;12.87;5.67;;;;;;;8.01;100.00;103693.09;5288802;27;20034;-71
2023/12/15 19:12:48;;;;;;;16.77;5.77;;;;;;;7.98;100.00;103688.72;5187430;28;20366;-70
2023/12/15 19:15:20;;;;;;;18.80;5.60;;;;;;;8.04;100.00;103708.72;5187885;28;20068;-70
2023/12/15 19:17:53;;;;;;;16.10;5.27;;;;;;;8.03;100.00;103700.91;5184263;28;20036;-70
2023/12/15 19:20:29;;;;;;;19.80;5.80;;;;;;;8.03;100.00;103706.13;5187003;28;20046;-70
2023/12/15 19:23:01;;;;;;;13.07;5.77;;;;;;;8.01;100.00;103684.38;5190481;28;20121;-69
2023/12/15 19:25:32;;;;;;;25.87;6.97;;;;;;;7.95;100.00;103691.34;5187884;28;20112;-70
2023/12/15 19:28:03;;;;;;;16.37;5.50;;;;;;;8.03;100.00;103700.91;5192713;28;20084;-70
2023/12/15 19:30:35;;;;;;;21.00;6.37;;;;;;;8.03;100.00;103703.53;5287401;28;20042;-69
2023/12/15 19:33:06;;;;;;;17.20;5.20;;;;;;;8.04;100.00;103700.03;5191472;28;20028;-68
2023/12/15 19:35:37;;;;;;;19.93;7.70;;;;;;;7.89;100.00;103691.34;5186184;28;20088;-69
2023/12/15 19:38:09;;;;;;;15.70;6.07;;;;;;;7.97;100.00;103700.06;5186261;28;20018;-69
2023/12/15 19:40:41;;;;;;;16.67;7.27;;;;;;;8.03;100.00;103716.56;5293157;27;20022;-69
2023/12/15 19:43:12;;;;;;;21.07;6.47;;;;;;;7.95;100.00;103708.75;5187282;28;20083;-70
2023/12/15 19:45:43;;;;;;;18.27;5.87;;;;;;;7.91;100.00;103713.09;5182098;28;20030;-70
2023/12/15 19:48:15;;;;;;;16.50;6.33;;;;;;;7.97;100.00;103715.72;5186770;28;20473;-69
2023/12/15 19:50:46;;;;;;;18.90;7.20;;;;;;;7.97;100.00;103723.53;5185004;28;20560;-70
2023/12/15 19:53:17;;;;;;;20.77;6.77;;;;;;;7.93;100.00;103721.78;5189344;28;20071;-69
2023/12/15 19:55:48;;;;;;;14.53;5.47;;;;;;;7.97;100.00;103728.75;5185677;28;20039;-70
2023/12/15 19:58:20;;;;;;;21.40;6.73;;;;;;;8.04;100.00;103739.16;5179806;28;20034;-70
2023/12/15 20:00:51;;;;;;;17.27;6.20;;;;;;;8.03;100.00;103747.88;5185313;28;20035;-71
2023/12/15 20:03:25;;;;;;;22.43;7.40;;;;;;;7.97;100.00;103743.53;5190943;28;20129;-71
2023/12/15 20:05:56;;;;;;;20.80;7.35;;;;;;;7.97;100.00;103747.03;5195793;28;20034;-70
2023/12/15 20:08:27;;;;;;;16.60;6.80;;;;;;;7.98;100.00;103759.19;5185792;28;20046;-71
2023/12/15 20:10:59;;;;;;;15.67;6.07;;;;;;;7.96;100.00;103752.22;5185257;28;20026;-71
2023/12/15 20:13:30;;;;;;;17.73;6.97;;;;;;;8.00;100.00;103774.84;5189250;28;20030;-71
2023/12/15 20:16:01;;;;;;;17.17;6.97;;;;;;;7.95;100.00;103767.03;5183266;28;20037;-71
2023/12/15 20:18:32;;;;;;;21.53;7.93;;;;;;;7.98;100.00;103772.25;5183110;28;20037;-71
2023/12/15 20:21:04;;;;;;;20.67;7.63;;;;;;;7.96;100.00;103760.94;5186572;28;20079;-71
2023/12/15 20:23:38;;;;;;;18.87;7.13;;;;;;;7.90;100.00;103768.78;5186696;28;20061;-71
2023/12/15 20:26:09;;;;;;;16.40;6.70;;;;;;;7.95;100.00;103768.78;5292231;27;20022;-71
2023/12/15 20:28:41;;;;;;;23.37;7.20;;;;;;;7.96;100.00;103768.75;5193221;28;20034;-71
2023/12/15 20:31:13;;;;;;;23.33;7.57;;;;;;;7.90;100.00;103775.72;5186746;28;20022;-69
2023/12/15 20:33:45;;;;;;;19.10;7.23;;;;;;;7.98;100.00;103787.91;5292735;27;20030;-71
2023/12/15 20:36:18;;;;;;;18.33;6.43;;;;;;;7.88;100.00;103778.34;5190900;28;20568;-71
2023/12/15 20:38:52;;;;;;;18.03;7.17;;;;;;;7.91;100.00;103780.06;5192474;28;20022;-69
2023/12/15 20:41:23;;;;;;;24.80;7.70;;;;;;;7.93;100.00;103781.81;5289137;27;20030;-69
2023/12/15 20:43:55;;;;;;;17.90;6.50;;;;;;;7.87;100.00;103779.22;5190802;28;20083;-69
2023/12/15 20:46:28;;;;;;;19.87;5.97;;;;;;;7.94;100.00;103790.53;5187840;28;20802;-70
2023/12/15 20:48:59;;;;;;;18.13;6.30;;;;;;;7.86;100.00;103782.69;5190652;28;20040;-70
2023/12/15 20:51:31;;;;;;;19.70;7.50;;;;;;;7.89;100.00;103780.06;5189224;28;20074;-70
2023/12/15 20:54:04;;;;;;;16.73;6.90;;;;;;;7.82;100.00;103776.59;5291278;27;20067;-69
2023/12/15 20:56:37;;;;;;;16.53;6.30;;;;;;;7.83;100.00;103772.25;5190914;28;20042;-69
2023/12/15 20:59:08;;;;;;;17.67;7.13;;;;;;;7.83;100.00;103774.88;5203458;28;20027;-69
2023/12/15 21:01:40;;;;;;;17.23;6.77;;;;;;;7.84;100.00;103771.38;5197924;28;20071;-69
2023/12/15 21:04:11;;;;;;;20.47;7.27;;;;;;;7.87;100.00;103766.19;5198647;28;20023;-69
2023/12/15 21:06:44;;;;;;;18.40;6.23;;;;;;;7.88;100.00;103780.97;5191666;28;20052;-70
2023/12/15 21:09:15;;;;;;;14.53;6.07;;;;;;;7.70;100.00;103750.53;5194594;28;20026;-70
2023/12/15 21:11:48;;;;;;;14.17;6.40;;;;;;;7.74;100.00;103768.81;5186359;28;20453;-71
2023/12/15 21:14:19;;;;;;;18.73;5.73;;;;;;;7.81;100.00;103780.09;5288084;27;20030;-71
2023/12/15 21:16:51;;;;;;;16.60;6.63;;;;;;;7.71;100.00;103774.03;5292223;27;20034;-70
2023/12/15 21:19:23;;;;;;;15.23;7.70;;;;;;;7.78;100.00;103779.22;5191448;28;20053;-69
2023/12/15 21:21:55;;;;;;;15.53;7.33;;;;;;;7.82;100.00;103778.38;5176042;28;20030;-70
2023/12/15 21:24:26;;;;;;;21.60;6.73;;;;;;;7.81;100.00;103780.09;5177636;28;20055;-70
2023/12/15 21:26:57;;;;;;;16.17;7.03;;;;;;;7.77;100.00;103778.34;5188677;28;20022;-68
2023/12/15 21:29:29;;;;;;;14.53;6.40;;;;;;;7.88;100.00;103780.97;5187920;28;20029;-71
2023/12/15 21:32:00;;;;;;;25.13;8.57;;;;;;;7.85;100.00;103781.81;5184522;28;20023;-70
2023/12/15 21:34:31;;;;;;;19.33;7.67;;;;;;;7.83;100.00;103777.47;5202541;28;20037;-72
2023/12/15 21:37:03;;;;;;;17.90;7.17;;;;;;;7.83;100.00;103785.31;5307998;27;20045;-71
2023/12/15 21:39:34;;;;;;;18.37;6.50;;;;;;;7.76;100.00;103766.19;5201885;28;20493;-69
2023/12/15 21:42:06;;;;;;;16.00;6.50;;;;;;;7.78;100.00;103768.78;5188451;28;20034;-71
2023/12/15 21:44:37;;;;;;;19.87;7.00;;;;;;;7.78;100.00;103774.00;5189327;28;20095;-70
2023/12/15 21:47:09;;;;;;;21.07;6.60;;;;;;;7.74;100.00;103773.13;5185541;28;20043;-70
2023/12/15 21:49:40;;;;;;;20.43;7.73;;;;;;;7.78;100.00;103779.22;5183436;28;20105;-70
2023/12/15 21:52:11;;;;;;;22.33;7.43;;;;;;;7.75;100.00;103780.97;5188027;28;20072;-71
2023/12/15 21:54:42;;;;;;;15.20;6.20;;;;;;;7.77;100.00;103782.72;5180863;28;20037;-70
2023/12/15 21:57:14;;;;;;;18.67;8.20;;;;;;;7.76;100.00;103797.50;5186156;28;20035;-69
2023/12/15 21:59:45;;;;;;;22.23;7.40;;;;;;;7.71;100.00;103788.81;5183763;28;20030;-70
2023/12/15 22:02:16;;;;;;;21.63;7.30;;;;;;;7.67;100.00;103785.31;5187351;28;20060;-70
2023/12/15 22:04:48;;;;;;;22.90;8.77;;;;;;;7.69;100.00;103773.16;5190727;28;20481;-71
2023/12/15 22:07:20;;;;;;;23.37;8.33;;;;;;;7.72;100.00;103765.31;5189109;28;20061;-69
2023/12/15 22:09:51;;;;;;;21.83;8.23;;;;;;;7.75;100.00;103767.91;5185484;28;20042;-71
2023/12/15 22:12:23;;;;;;;23.93;7.27;;;;;;;7.72;100.00;103765.31;5278009;28;20034;-70
2023/12/15 22:14:54;;;;;;;19.13;6.67;;;;;;;7.77;100.00;103769.69;5214837;28;20115;-70
2023/12/15 22:17:25;;;;;;;18.17;6.70;;;;;;;7.69;100.00;103767.06;5205708;28;20039;-71
2023/12/15 22:19:57;;;;;;;23.13;8.43;;;;;;;7.75;100.00;103772.25;5191654;28;20030;-70
2023/12/15 22:22:28;;;;;;;15.93;6.80;;;;;;;7.62;100.00;103754.03;5183614;28;20034;-70
2023/12/15 22:25:00;;;;;;;24.40;7.93;;;;;;;7.74;100.00;103771.41;5197848;28;20110;-73
2023/12/15 22:27:32;;;;;;;18.13;7.23;;;;;;;7.74;100.00;103774.00;5207391;28;20042;-71
2023/12/15 22:30:08;;;;;;;24.43;8.33;;;;;;;7.71;100.00;103774.03;5189290;28;20473;-71
2023/12/15 22:32:41;;;;;;;20.57;8.17;;;;;;;7.76;100.00;103779.22;5179735;28;20042;-71
2023/12/15 22:35:12;;;;;;;23.13;8.37;;;;;;;7.74;100.00;103771.41;5206460;28;20018;-70
2023/12/15 22:37:44;;;;;;;16.27;7.37;;;;;;;7.78;100.00;103795.75;5194803;28;20049;-69
2023/12/15 22:40:15;;;;;;;21.40;8.67;;;;;;;7.77;100.00;103800.97;5187648;28;20025;-70
2023/12/15 22:42:47;;;;;;;25.17;9.27;;;;;;;7.72;100.00;103801.84;5184943;28;20634;-70
2023/12/15 22:45:18;;;;;;;23.27;8.87;;;;;;;7.74;100.00;103814.88;5183693;28;20377;-71
2023/12/15 22:47:49;;;;;;;19.30;8.30;;;;;;;7.72;100.00;103817.50;5171325;28;20031;-70
2023/12/15 22:50:21;;;;;;;20.73;8.80;;;;;;;7.72;100.00;103817.50;5182235;28;20029;-71
2023/12/15 22:52:53;;;;;;;23.90;9.27;;;;;;;7.74;100.00;103814.88;5176470;28;20819;-70
2023/12/15 22:55:24;;;;;;;24.83;9.47;;;;;;;7.70;100.00;103800.97;5175972;28;20496;-69
2023/12/15 22:57:56;;;;;;;25.20;9.97;;;;;;;7.76;100.00;103805.31;5178870;28;20034;-70
2023/12/15 23:00:30;;;;;;;22.97;8.73;;;;;;;7.73;100.00;103803.56;5179212;28;20026;-70
2023/12/15 23:03:01;;;;;;;24.60;8.90;;;;;;;7.74;100.00;103789.66;5183792;28;20424;-70
2023/12/15 23:05:33;;;;;;;17.87;9.00;;;;;;;7.76;100.00;103802.72;5171391;28;20026;-70
2023/12/15 23:08:04;;;;;;;20.43;7.97;;;;;;;7.68;100.00;103784.44;5169897;28;20474;-70
2023/12/15 23:10:36;;;;;;;23.87;8.47;;;;;;;7.73;100.00;103795.75;5184168;28;20027;-72
2023/12/15 23:13:07;;;;;;;19.03;8.07;;;;;;;7.69;100.00;103807.06;5181807;28;20039;-72
2023/12/15 23:15:39;;;;;;;25.90;9.00;;;;;;;7.72;100.00;103800.97;5183717;28;20083;-71
2023/12/15 23:18:10;;;;;;;15.67;7.57;;;;;;;7.71;100.00;103794.00;5176431;28;20038;-70
2023/12/15 23:20:41;;;;;;;19.63;7.73;;;;;;;7.67;100.00;103792.25;5191781;28;20038;-72
2023/12/15 23:23:13;;;;;;;21.50;8.07;;;;;;;7.64;100.00;103787.94;5175843;28;20027;-70
2023/12/15 23:25:44;;;;;;;19.37;7.10;;;;;;;7.67;100.00;103794.88;5188110;28;20444;-70
2023/12/15 23:28:15;;;;;;;15.50;7.07;;;;;;;7.65;100.00;103792.25;5171549;28;20027;-71
